sensor_id;sensor_type;location;lat;lon;timestamp;temperature;humidity
39665;DHT22;26679;50.872;4.332;2023-03-01T00:04:27;3.00;93.70
39665;DHT22;26679;50.872;4.332;2023-03-01T00:06:53;2.90;93.80
39665;DHT22;26679;50.872;4.332;2023-03-01T00:09:19;2.90;93.80
39665;DHT22;26679;50.872;4.332;2023-03-01T00:11:44;3.00;93.90
39665;DHT22;26679;50.872;4.332;2023-03-01T00:14:10;3.10;93.90
39665;DHT22;26679;50.872;4.332;2023-03-01T00:16:37;4.00;93.90
39665;DHT22;26679;50.872;4.332;2023-03-01T00:19:10;4.50;93.80
39665;DHT22;26679;50.872;4.332;2023-03-01T00:21:36;3.40;93.50
39665;DHT22;26679;50.872;4.332;2023-03-01T00:24:02;3.50;93.50
39665;DHT22;26679;50.872;4.332;2023-03-01T00:26:28;3.40;93.50
39665;DHT22;26679;50.872;4.332;2023-03-01T00:28:54;3.30;93.40
39665;DHT22;26679;50.872;4.332;2023-03-01T00:31:23;3.30;93.50
39665;DHT22;26679;50.872;4.332;2023-03-01T00:33:51;3.30;93.50
39665;DHT22;26679;50.872;4.332;2023-03-01T00:36:17;3.40;93.50
39665;DHT22;26679;50.872;4.332;2023-03-01T00:38:43;3.40;93.40
39665;DHT22;26679;50.872;4.332;2023-03-01T00:41:10;4.10;93.70
39665;DHT22;26679;50.872;4.332;2023-03-01T00:43:36;3.10;93.70
39665;DHT22;26679;50.872;4.332;2023-03-01T00:46:05;3.10;94.10
39665;DHT22;26679;50.872;4.332;2023-03-01T00:48:31;2.60;94.40
39665;DHT22;26679;50.872;4.332;2023-03-01T00:51:03;2.50;94.60
39665;DHT22;26679;50.872;4.332;2023-03-01T00:53:29;2.40;94.80
39665;DHT22;26679;50.872;4.332;2023-03-01T00:55:56;2.40;95.00
39665;DHT22;26679;50.872;4.332;2023-03-01T00:58:21;2.40;95.10
39665;DHT22;26679;50.872;4.332;2023-03-01T01:00:47;2.50;95.10
39665;DHT22;26679;50.872;4.332;2023-03-01T01:03:14;3.00;94.90
39665;DHT22;26679;50.872;4.332;2023-03-01T01:05:39;2.50;94.80
39665;DHT22;26679;50.872;4.332;2023-03-01T01:08:05;2.50;95.00
39665;DHT22;26679;50.872;4.332;2023-03-01T01:10:33;2.50;95.00
39665;DHT22;26679;50.872;4.332;2023-03-01T01:12:58;2.60;95.10
39665;DHT22;26679;50.872;4.332;2023-03-01T01:15:24;2.70;94.90
39665;DHT22;26679;50.872;4.332;2023-03-01T01:17:49;4.10;95.10
39665;DHT22;26679;50.872;4.332;2023-03-01T01:20:15;3.90;95.40
39665;DHT22;26679;50.872;4.332;2023-03-01T01:22:40;2.80;94.90
39665;DHT22;26679;50.872;4.332;2023-03-01T01:25:06;2.70;94.80
39665;DHT22;26679;50.872;4.332;2023-03-01T01:27:32;2.50;95.00
39665;DHT22;26679;50.872;4.332;2023-03-01T01:29:57;2.50;95.30
39665;DHT22;26679;50.872;4.332;2023-03-01T01:32:23;3.10;95.60
39665;DHT22;26679;50.872;4.332;2023-03-01T01:34:48;2.40;95.50
39665;DHT22;26679;50.872;4.332;2023-03-01T01:37:14;2.30;95.50
39665;DHT22;26679;50.872;4.332;2023-03-01T01:39:39;2.30;95.70
39665;DHT22;26679;50.872;4.332;2023-03-01T01:42:05;2.20;95.70
39665;DHT22;26679;50.872;4.332;2023-03-01T01:44:32;2.20;95.90
39665;DHT22;26679;50.872;4.332;2023-03-01T01:46:59;2.10;96.00
39665;DHT22;26679;50.872;4.332;2023-03-01T01:54:46;2.10;96.00
39665;DHT22;26679;50.872;4.332;2023-03-01T02:00:17;1.90;96.20
39665;DHT22;26679;50.872;4.332;2023-03-01T02:02:42;1.80;96.50
39665;DHT22;26679;50.872;4.332;2023-03-01T02:05:15;2.00;96.40
39665;DHT22;26679;50.872;4.332;2023-03-01T02:07:43;2.10;96.30
39665;DHT22;26679;50.872;4.332;2023-03-01T02:10:09;2.20;96.20
39665;DHT22;26679;50.872;4.332;2023-03-01T02:12:35;2.20;96.10
39665;DHT22;26679;50.872;4.332;2023-03-01T02:15:01;3.00;96.50
39665;DHT22;26679;50.872;4.332;2023-03-01T02:17:26;2.20;96.20
39665;DHT22;26679;50.872;4.332;2023-03-01T02:22:32;2.30;95.90
39665;DHT22;26679;50.872;4.332;2023-03-01T02:27:29;2.30;96.00
39665;DHT22;26679;50.872;4.332;2023-03-01T02:29:56;2.20;96.10
39665;DHT22;26679;50.872;4.332;2023-03-01T02:32:21;2.10;96.20
39665;DHT22;26679;50.872;4.332;2023-03-01T02:34:54;2.00;96.40
39665;DHT22;26679;50.872;4.332;2023-03-01T02:37:20;2.00;96.60
39665;DHT22;26679;50.872;4.332;2023-03-01T02:39:54;2.00;96.50
39665;DHT22;26679;50.872;4.332;2023-03-01T02:42:23;2.00;96.60
39665;DHT22;26679;50.872;4.332;2023-03-01T02:44:51;2.10;96.80
39665;DHT22;26679;50.872;4.332;2023-03-01T02:47:16;1.80;96.80
39665;DHT22;26679;50.872;4.332;2023-03-01T02:49:42;2.00;97.10
39665;DHT22;26679;50.872;4.332;2023-03-01T02:54:36;1.60;97.20
39665;DHT22;26679;50.872;4.332;2023-03-01T02:57:04;1.50;97.50
39665;DHT22;26679;50.872;4.332;2023-03-01T02:59:31;1.30;97.60
39665;DHT22;26679;50.872;4.332;2023-03-01T03:02:00;1.40;97.80
39665;DHT22;26679;50.872;4.332;2023-03-01T03:04:25;3.00;98.30
39665;DHT22;26679;50.872;4.332;2023-03-01T03:06:51;1.20;98.30
39665;DHT22;26679;50.872;4.332;2023-03-01T03:09:17;1.30;98.20
39665;DHT22;26679;50.872;4.332;2023-03-01T03:11:43;1.30;98.20
39665;DHT22;26679;50.872;4.332;2023-03-01T03:14:12;1.30;98.20
39665;DHT22;26679;50.872;4.332;2023-03-01T03:16:47;1.30;98.10
39665;DHT22;26679;50.872;4.332;2023-03-01T03:19:13;1.30;98.10
39665;DHT22;26679;50.872;4.332;2023-03-01T03:21:39;1.30;98.30
39665;DHT22;26679;50.872;4.332;2023-03-01T03:24:04;1.30;98.40
39665;DHT22;26679;50.872;4.332;2023-03-01T03:26:30;1.20;98.50
39665;DHT22;26679;50.872;4.332;2023-03-01T03:28:56;1.10;98.50
39665;DHT22;26679;50.872;4.332;2023-03-01T03:31:22;1.10;98.70
39665;DHT22;26679;50.872;4.332;2023-03-01T03:33:47;1.00;98.80
39665;DHT22;26679;50.872;4.332;2023-03-01T03:36:20;0.90;98.80
39665;DHT22;26679;50.872;4.332;2023-03-01T03:38:45;0.90;99.10
39665;DHT22;26679;50.872;4.332;2023-03-01T03:41:11;0.90;99.20
39665;DHT22;26679;50.872;4.332;2023-03-01T03:43:37;0.90;99.20
39665;DHT22;26679;50.872;4.332;2023-03-01T03:46:03;0.90;99.30
39665;DHT22;26679;50.872;4.332;2023-03-01T03:51:15;0.80;99.50
39665;DHT22;26679;50.872;4.332;2023-03-01T03:53:41;2.30;99.90
39665;DHT22;26679;50.872;4.332;2023-03-01T03:56:07;0.80;99.50
39665;DHT22;26679;50.872;4.332;2023-03-01T03:58:32;0.80;99.70
39665;DHT22;26679;50.872;4.332;2023-03-01T04:00:59;1.50;99.90
39665;DHT22;26679;50.872;4.332;2023-03-01T04:03:26;0.80;99.90
39665;DHT22;26679;50.872;4.332;2023-03-01T04:05:52;0.60;99.90
39665;DHT22;26679;50.872;4.332;2023-03-01T04:08:18;1.10;99.90
39665;DHT22;26679;50.872;4.332;2023-03-01T04:10:46;0.50;99.90
39665;DHT22;26679;50.872;4.332;2023-03-01T04:13:17;0.50;99.90
39665;DHT22;26679;50.872;4.332;2023-03-01T04:15:45;0.50;99.90
39665;DHT22;26679;50.872;4.332;2023-03-01T04:18:11;0.60;99.90
39665;DHT22;26679;50.872;4.332;2023-03-01T04:20:37;0.60;99.90
39665;DHT22;26679;50.872;4.332;2023-03-01T04:25:37;0.70;99.90
39665;DHT22;26679;50.872;4.332;2023-03-01T04:28:03;0.70;99.90
39665;DHT22;26679;50.872;4.332;2023-03-01T04:30:28;0.80;99.90
39665;DHT22;26679;50.872;4.332;2023-03-01T04:32:54;0.70;99.90
39665;DHT22;26679;50.872;4.332;2023-03-01T04:35:19;0.70;99.90
39665;DHT22;26679;50.872;4.332;2023-03-01T04:37:45;0.90;99.90
39665;DHT22;26679;50.872;4.332;2023-03-01T04:40:11;1.00;99.90
39665;DHT22;26679;50.872;4.332;2023-03-01T04:42:42;1.00;99.90
39665;DHT22;26679;50.872;4.332;2023-03-01T04:45:08;1.00;99.90
39665;DHT22;26679;50.872;4.332;2023-03-01T04:47:42;1.00;99.90
39665;DHT22;26679;50.872;4.332;2023-03-01T04:50:08;0.90;99.90
39665;DHT22;26679;50.872;4.332;2023-03-01T04:52:34;0.70;99.90
39665;DHT22;26679;50.872;4.332;2023-03-01T04:55:00;0.60;99.90
39665;DHT22;26679;50.872;4.332;2023-03-01T04:57:26;1.60;99.90
39665;DHT22;26679;50.872;4.332;2023-03-01T04:59:51;0.50;99.90
39665;DHT22;26679;50.872;4.332;2023-03-01T05:02:17;0.60;99.90
39665;DHT22;26679;50.872;4.332;2023-03-01T05:04:42;0.70;99.90
39665;DHT22;26679;50.872;4.332;2023-03-01T05:07:08;0.80;99.90
39665;DHT22;26679;50.872;4.332;2023-03-01T05:09:34;0.80;99.90
39665;DHT22;26679;50.872;4.332;2023-03-01T05:11:59;0.70;99.90
39665;DHT22;26679;50.872;4.332;2023-03-01T05:14:25;0.60;99.90
39665;DHT22;26679;50.872;4.332;2023-03-01T05:16:50;0.50;99.90
39665;DHT22;26679;50.872;4.332;2023-03-01T05:19:16;0.80;99.90
39665;DHT22;26679;50.872;4.332;2023-03-01T05:21:42;0.50;99.90
39665;DHT22;26679;50.872;4.332;2023-03-01T05:24:31;0.50;99.90
39665;DHT22;26679;50.872;4.332;2023-03-01T05:26:57;0.50;99.90
39665;DHT22;26679;50.872;4.332;2023-03-01T05:29:23;0.40;99.90
39665;DHT22;26679;50.872;4.332;2023-03-01T05:31:55;0.30;99.90
39665;DHT22;26679;50.872;4.332;2023-03-01T05:34:28;0.30;99.90
39665;DHT22;26679;50.872;4.332;2023-03-01T05:36:54;0.40;99.90
39665;DHT22;26679;50.872;4.332;2023-03-01T05:39:20;0.50;99.90
39665;DHT22;26679;50.872;4.332;2023-03-01T05:41:52;0.40;99.90
39665;DHT22;26679;50.872;4.332;2023-03-01T05:44:18;0.40;99.90
39665;DHT22;26679;50.872;4.332;2023-03-01T05:46:44;0.40;99.90
39665;DHT22;26679;50.872;4.332;2023-03-01T05:49:10;0.40;99.90
39665;DHT22;26679;50.872;4.332;2023-03-01T05:51:36;1.10;99.90
39665;DHT22;26679;50.872;4.332;2023-03-01T05:54:01;0.30;99.90
39665;DHT22;26679;50.872;4.332;2023-03-01T05:56:27;0.30;99.90
39665;DHT22;26679;50.872;4.332;2023-03-01T05:58:52;0.30;99.90
39665;DHT22;26679;50.872;4.332;2023-03-01T06:01:18;0.50;99.90
39665;DHT22;26679;50.872;4.332;2023-03-01T06:03:43;0.50;99.90
39665;DHT22;26679;50.872;4.332;2023-03-01T06:06:09;1.50;99.90
39665;DHT22;26679;50.872;4.332;2023-03-01T06:08:34;0.40;99.90
39665;DHT22;26679;50.872;4.332;2023-03-01T06:10:59;0.40;99.90
39665;DHT22;26679;50.872;4.332;2023-03-01T06:13:25;0.40;99.90
39665;DHT22;26679;50.872;4.332;2023-03-01T06:15:51;0.40;99.90
39665;DHT22;26679;50.872;4.332;2023-03-01T06:18:17;0.50;99.90
39665;DHT22;26679;50.872;4.332;2023-03-01T06:20:42;0.60;99.90
39665;DHT22;26679;50.872;4.332;2023-03-01T06:23:07;0.30;99.90
39665;DHT22;26679;50.872;4.332;2023-03-01T06:25:33;0.20;99.90
39665;DHT22;26679;50.872;4.332;2023-03-01T06:27:59;0.20;99.90
39665;DHT22;26679;50.872;4.332;2023-03-01T06:30:25;0.10;99.90
39665;DHT22;26679;50.872;4.332;2023-03-01T06:32:50;0.20;99.90
39665;DHT22;26679;50.872;4.332;2023-03-01T06:35:17;0.30;99.90
39665;DHT22;26679;50.872;4.332;2023-03-01T06:37:43;0.50;99.90
39665;DHT22;26679;50.872;4.332;2023-03-01T06:40:09;0.60;99.90
39665;DHT22;26679;50.872;4.332;2023-03-01T06:42:37;0.70;99.90
39665;DHT22;26679;50.872;4.332;2023-03-01T06:45:03;0.70;99.90
39665;DHT22;26679;50.872;4.332;2023-03-01T06:47:29;0.70;99.90
39665;DHT22;26679;50.872;4.332;2023-03-01T06:49:54;0.80;99.90
39665;DHT22;26679;50.872;4.332;2023-03-01T06:52:21;0.80;99.90
39665;DHT22;26679;50.872;4.332;2023-03-01T06:54:47;0.70;99.90
39665;DHT22;26679;50.872;4.332;2023-03-01T06:57:13;0.50;99.90
39665;DHT22;26679;50.872;4.332;2023-03-01T06:59:38;0.30;99.90
39665;DHT22;26679;50.872;4.332;2023-03-01T07:02:03;0.10;99.90
39665;DHT22;26679;50.872;4.332;2023-03-01T07:04:29;0.10;99.90
39665;DHT22;26679;50.872;4.332;2023-03-01T07:06:55;0.10;99.90
39665;DHT22;26679;50.872;4.332;2023-03-01T07:09:24;0.10;99.90
39665;DHT22;26679;50.872;4.332;2023-03-01T07:12:00;0.20;99.90
39665;DHT22;26679;50.872;4.332;2023-03-01T07:14:26;1.60;99.90
39665;DHT22;26679;50.872;4.332;2023-03-01T07:16:52;-0.40;99.90
39665;DHT22;26679;50.872;4.332;2023-03-01T07:19:18;1.60;99.90
39665;DHT22;26679;50.872;4.332;2023-03-01T07:21:44;-0.90;99.90
39665;DHT22;26679;50.872;4.332;2023-03-01T07:24:18;0.30;99.90
39665;DHT22;26679;50.872;4.332;2023-03-01T07:30:17;0.00;99.90
39665;DHT22;26679;50.872;4.332;2023-03-01T07:32:43;0.70;99.90
39665;DHT22;26679;50.872;4.332;2023-03-01T07:35:08;0.70;99.90
39665;DHT22;26679;50.872;4.332;2023-03-01T07:37:34;1.20;99.90
39665;DHT22;26679;50.872;4.332;2023-03-01T07:40:00;0.60;99.90
39665;DHT22;26679;50.872;4.332;2023-03-01T07:42:25;1.00;99.90
39665;DHT22;26679;50.872;4.332;2023-03-01T07:44:51;2.50;99.90
39665;DHT22;26679;50.872;4.332;2023-03-01T07:47:16;0.90;99.90
39665;DHT22;26679;50.872;4.332;2023-03-01T07:49:42;0.70;99.90
39665;DHT22;26679;50.872;4.332;2023-03-01T07:52:09;0.60;99.90
39665;DHT22;26679;50.872;4.332;2023-03-01T07:54:35;0.50;99.90
39665;DHT22;26679;50.872;4.332;2023-03-01T07:57:00;0.20;99.90
39665;DHT22;26679;50.872;4.332;2023-03-01T07:59:26;0.70;99.90
39665;DHT22;26679;50.872;4.332;2023-03-01T08:01:54;0.70;99.90
39665;DHT22;26679;50.872;4.332;2023-03-01T08:04:21;0.50;99.90
39665;DHT22;26679;50.872;4.332;2023-03-01T08:06:46;0.50;99.90
39665;DHT22;26679;50.872;4.332;2023-03-01T08:09:12;0.70;99.90
39665;DHT22;26679;50.872;4.332;2023-03-01T08:11:37;0.60;99.90
39665;DHT22;26679;50.872;4.332;2023-03-01T08:14:03;0.60;99.90
39665;DHT22;26679;50.872;4.332;2023-03-01T08:16:29;0.80;99.90
39665;DHT22;26679;50.872;4.332;2023-03-01T08:18:54;0.70;99.90
39665;DHT22;26679;50.872;4.332;2023-03-01T08:21:22;0.90;99.90
39665;DHT22;26679;50.872;4.332;2023-03-01T08:23:47;1.00;99.90
39665;DHT22;26679;50.872;4.332;2023-03-01T08:26:17;1.00;99.90
39665;DHT22;26679;50.872;4.332;2023-03-01T08:28:43;1.20;99.90
39665;DHT22;26679;50.872;4.332;2023-03-01T08:31:13;1.70;99.90
39665;DHT22;26679;50.872;4.332;2023-03-01T08:33:39;2.50;99.90
39665;DHT22;26679;50.872;4.332;2023-03-01T08:36:05;3.30;99.30
39665;DHT22;26679;50.872;4.332;2023-03-01T08:38:37;4.20;98.80
39665;DHT22;26679;50.872;4.332;2023-03-01T08:41:02;4.50;95.80
39665;DHT22;26679;50.872;4.332;2023-03-01T08:43:28;4.50;96.50
39665;DHT22;26679;50.872;4.332;2023-03-01T08:45:54;6.80;95.50
39665;DHT22;26679;50.872;4.332;2023-03-01T08:48:19;6.20;93.40
39665;DHT22;26679;50.872;4.332;2023-03-01T08:50:45;5.20;93.90
39665;DHT22;26679;50.872;4.332;2023-03-01T09:02:22;5.60;93.30
39665;DHT22;26679;50.872;4.332;2023-03-01T09:04:48;4.60;94.50
39665;DHT22;26679;50.872;4.332;2023-03-01T09:07:14;5.10;95.60
39665;DHT22;26679;50.872;4.332;2023-03-01T09:09:39;5.30;96.90
39665;DHT22;26679;50.872;4.332;2023-03-01T09:12:05;3.10;96.70
39665;DHT22;26679;50.872;4.332;2023-03-01T09:14:31;3.00;97.00
39665;DHT22;26679;50.872;4.332;2023-03-01T09:16:56;2.30;97.30
39665;DHT22;26679;50.872;4.332;2023-03-01T09:19:22;2.80;97.60
39665;DHT22;26679;50.872;4.332;2023-03-01T09:21:48;4.50;98.20
39665;DHT22;26679;50.872;4.332;2023-03-01T09:24:21;3.10;97.90
39665;DHT22;26679;50.872;4.332;2023-03-01T09:26:46;4.00;98.40
39665;DHT22;26679;50.872;4.332;2023-03-01T09:29:12;3.40;98.30
39665;DHT22;26679;50.872;4.332;2023-03-01T09:31:39;1.80;97.70
39665;DHT22;26679;50.872;4.332;2023-03-01T09:34:05;2.80;97.70
39665;DHT22;26679;50.872;4.332;2023-03-01T09:36:34;3.50;98.10
39665;DHT22;26679;50.872;4.332;2023-03-01T09:39:00;4.30;98.10
39665;DHT22;26679;50.872;4.332;2023-03-01T09:43:55;2.90;97.40
39665;DHT22;26679;50.872;4.332;2023-03-01T09:46:25;3.20;97.80
39665;DHT22;26679;50.872;4.332;2023-03-01T09:48:54;3.00;97.70
39665;DHT22;26679;50.872;4.332;2023-03-01T09:51:29;4.30;97.70
39665;DHT22;26679;50.872;4.332;2023-03-01T09:53:55;3.20;97.50
39665;DHT22;26679;50.872;4.332;2023-03-01T09:56:25;5.00;97.20
39665;DHT22;26679;50.872;4.332;2023-03-01T09:58:55;4.90;96.70
39665;DHT22;26679;50.872;4.332;2023-03-01T10:01:29;7.30;95.00
39665;DHT22;26679;50.872;4.332;2023-03-01T10:06:26;6.00;93.00
39665;DHT22;26679;50.872;4.332;2023-03-01T10:08:54;6.90;93.00
39665;DHT22;26679;50.872;4.332;2023-03-01T10:13:48;9.10;90.70
39665;DHT22;26679;50.872;4.332;2023-03-01T10:16:20;9.50;89.00
39665;DHT22;26679;50.872;4.332;2023-03-01T10:18:47;9.10;89.20
39665;DHT22;26679;50.872;4.332;2023-03-01T10:21:17;9.60;89.10
39665;DHT22;26679;50.872;4.332;2023-03-01T10:23:49;10.70;85.20
39665;DHT22;26679;50.872;4.332;2023-03-01T10:31:09;9.40;87.70
39665;DHT22;26679;50.872;4.332;2023-03-01T10:33:37;10.20;85.00
39665;DHT22;26679;50.872;4.332;2023-03-01T10:36:05;9.70;85.30
39665;DHT22;26679;50.872;4.332;2023-03-01T10:38:31;9.50;85.20
39665;DHT22;26679;50.872;4.332;2023-03-01T10:41:11;10.30;84.80
39665;DHT22;26679;50.872;4.332;2023-03-01T10:51:34;12.90;79.60
39665;DHT22;26679;50.872;4.332;2023-03-01T10:54:00;13.60;78.40
39665;DHT22;26679;50.872;4.332;2023-03-01T10:56:26;12.30;78.60
39665;DHT22;26679;50.872;4.332;2023-03-01T11:01:25;13.40;78.20
39665;DHT22;26679;50.872;4.332;2023-03-01T11:06:27;11.50;78.90
39665;DHT22;26679;50.872;4.332;2023-03-01T11:08:53;11.40;79.70
39665;DHT22;26679;50.872;4.332;2023-03-01T11:13:53;13.40;76.70
39665;DHT22;26679;50.872;4.332;2023-03-01T11:18:59;15.00;74.90
39665;DHT22;26679;50.872;4.332;2023-03-01T11:21:26;15.60;74.40
39665;DHT22;26679;50.872;4.332;2023-03-01T11:23:57;15.60;73.40
39665;DHT22;26679;50.872;4.332;2023-03-01T11:26:25;16.00;73.50
39665;DHT22;26679;50.872;4.332;2023-03-01T11:28:51;16.60;71.90
39665;DHT22;26679;50.872;4.332;2023-03-01T11:31:19;17.20;71.60
39665;DHT22;26679;50.872;4.332;2023-03-01T11:33:46;16.60;71.30
39665;DHT22;26679;50.872;4.332;2023-03-01T11:38:39;16.00;70.30
39665;DHT22;26679;50.872;4.332;2023-03-01T11:41:06;16.60;70.70
39665;DHT22;26679;50.872;4.332;2023-03-01T11:48:52;14.80;70.70
39665;DHT22;26679;50.872;4.332;2023-03-01T11:51:25;14.70;71.80
39665;DHT22;26679;50.872;4.332;2023-03-01T11:56:37;15.90;69.30
39665;DHT22;26679;50.872;4.332;2023-03-01T12:01:33;15.30;69.90
39665;DHT22;26679;50.872;4.332;2023-03-01T12:24:59;17.60;66.20
39665;DHT22;26679;50.872;4.332;2023-03-01T12:27:37;15.80;66.70
39665;DHT22;26679;50.872;4.332;2023-03-01T12:35:29;16.10;68.10
39665;DHT22;26679;50.872;4.332;2023-03-01T12:38:01;17.40;66.40
39665;DHT22;26679;50.872;4.332;2023-03-01T12:50:53;15.70;67.20
39665;DHT22;26679;50.872;4.332;2023-03-01T12:55:44;17.00;65.60
39665;DHT22;26679;50.872;4.332;2023-03-01T13:11:04;19.30;64.40
39665;DHT22;26679;50.872;4.332;2023-03-01T13:13:31;19.90;63.70
39665;DHT22;26679;50.872;4.332;2023-03-01T13:15:57;18.80;62.70
39665;DHT22;26679;50.872;4.332;2023-03-01T13:20:50;19.10;64.50
39665;DHT22;26679;50.872;4.332;2023-03-01T13:31:03;19.60;62.40
39665;DHT22;26679;50.872;4.332;2023-03-01T13:43:59;18.90;62.50
39665;DHT22;26679;50.872;4.332;2023-03-01T13:46:24;19.50;62.50
39665;DHT22;26679;50.872;4.332;2023-03-01T13:48:54;18.50;62.20
39665;DHT22;26679;50.872;4.332;2023-03-01T13:51:23;19.30;62.50
39665;DHT22;26679;50.872;4.332;2023-03-01T13:53:50;19.60;62.20
39665;DHT22;26679;50.872;4.332;2023-03-01T13:56:20;18.70;61.20
39665;DHT22;26679;50.872;4.332;2023-03-01T13:58:51;18.00;61.50
39665;DHT22;26679;50.872;4.332;2023-03-01T14:03:54;16.00;64.00
39665;DHT22;26679;50.872;4.332;2023-03-01T14:06:23;15.20;64.50
39665;DHT22;26679;50.872;4.332;2023-03-01T14:08:50;14.60;65.70
39665;DHT22;26679;50.872;4.332;2023-03-01T14:14:26;12.80;68.60
39665;DHT22;26679;50.872;4.332;2023-03-01T14:19:14;12.10;69.20
39665;DHT22;26679;50.872;4.332;2023-03-01T14:21:41;11.80;69.50
39665;DHT22;26679;50.872;4.332;2023-03-01T14:24:14;11.70;69.70
39665;DHT22;26679;50.872;4.332;2023-03-01T14:26:40;11.70;69.60
39665;DHT22;26679;50.872;4.332;2023-03-01T14:29:06;11.50;70.70
39665;DHT22;26679;50.872;4.332;2023-03-01T14:33:57;10.20;72.80
39665;DHT22;26679;50.872;4.332;2023-03-01T14:36:27;9.60;74.10
39665;DHT22;26679;50.872;4.332;2023-03-01T14:38:52;9.40;74.70
39665;DHT22;26679;50.872;4.332;2023-03-01T14:41:24;9.50;74.90
39665;DHT22;26679;50.872;4.332;2023-03-01T14:43:53;9.70;75.00
39665;DHT22;26679;50.872;4.332;2023-03-01T14:48:53;10.20;75.80
39665;DHT22;26679;50.872;4.332;2023-03-01T14:51:20;9.80;75.40
39665;DHT22;26679;50.872;4.332;2023-03-01T14:53:45;10.10;75.20
39665;DHT22;26679;50.872;4.332;2023-03-01T14:56:15;10.20;75.10
39665;DHT22;26679;50.872;4.332;2023-03-01T14:58:42;10.40;75.10
39665;DHT22;26679;50.872;4.332;2023-03-01T15:01:11;10.30;74.60
39665;DHT22;26679;50.872;4.332;2023-03-01T15:03:40;9.90;75.60
39665;DHT22;26679;50.872;4.332;2023-03-01T15:06:07;10.00;75.60
39665;DHT22;26679;50.872;4.332;2023-03-01T15:08:33;10.10;75.20
39665;DHT22;26679;50.872;4.332;2023-03-01T15:11:04;10.00;75.10
39665;DHT22;26679;50.872;4.332;2023-03-01T15:13:34;9.90;75.10
39665;DHT22;26679;50.872;4.332;2023-03-01T15:16:09;9.80;75.00
39665;DHT22;26679;50.872;4.332;2023-03-01T15:18:36;9.90;75.20
39665;DHT22;26679;50.872;4.332;2023-03-01T15:21:36;9.90;75.20
39665;DHT22;26679;50.872;4.332;2023-03-01T15:26:55;10.10;74.70
39665;DHT22;26679;50.872;4.332;2023-03-01T15:29:27;10.00;75.20
39665;DHT22;26679;50.872;4.332;2023-03-01T15:34:29;9.90;75.30
39665;DHT22;26679;50.872;4.332;2023-03-01T15:36:56;9.60;76.10
39665;DHT22;26679;50.872;4.332;2023-03-01T15:44:41;9.40;77.20
39665;DHT22;26679;50.872;4.332;2023-03-01T15:47:20;9.20;77.70
39665;DHT22;26679;50.872;4.332;2023-03-01T15:49:47;9.00;78.20
39665;DHT22;26679;50.872;4.332;2023-03-01T15:55:01;9.00;78.40
39665;DHT22;26679;50.872;4.332;2023-03-01T15:57:27;8.80;78.90
39665;DHT22;26679;50.872;4.332;2023-03-01T15:59:55;8.80;79.00
39665;DHT22;26679;50.872;4.332;2023-03-01T16:02:21;8.80;78.80
39665;DHT22;26679;50.872;4.332;2023-03-01T16:04:47;9.00;78.70
39665;DHT22;26679;50.872;4.332;2023-03-01T16:07:16;9.10;78.30
39665;DHT22;26679;50.872;4.332;2023-03-01T16:09:42;9.30;78.00
39665;DHT22;26679;50.872;4.332;2023-03-01T16:12:15;9.00;77.90
39665;DHT22;26679;50.872;4.332;2023-03-01T16:14:41;9.00;78.20
39665;DHT22;26679;50.872;4.332;2023-03-01T16:17:07;9.00;77.90
39665;DHT22;26679;50.872;4.332;2023-03-01T16:19:35;8.80;78.50
39665;DHT22;26679;50.872;4.332;2023-03-01T16:22:02;8.90;78.70
39665;DHT22;26679;50.872;4.332;2023-03-01T16:24:28;8.80;78.80
39665;DHT22;26679;50.872;4.332;2023-03-01T16:26:53;8.90;78.70
39665;DHT22;26679;50.872;4.332;2023-03-01T16:29:20;8.80;78.80
39665;DHT22;26679;50.872;4.332;2023-03-01T16:31:46;8.80;79.10
39665;DHT22;26679;50.872;4.332;2023-03-01T16:34:11;8.90;79.60
39665;DHT22;26679;50.872;4.332;2023-03-01T16:36:37;8.80;79.70
39665;DHT22;26679;50.872;4.332;2023-03-01T16:39:03;8.60;80.10
39665;DHT22;26679;50.872;4.332;2023-03-01T16:41:29;8.40;80.30
39665;DHT22;26679;50.872;4.332;2023-03-01T16:43:55;8.40;80.70
39665;DHT22;26679;50.872;4.332;2023-03-01T16:46:25;8.40;80.60
39665;DHT22;26679;50.872;4.332;2023-03-01T16:48:51;8.50;80.50
39665;DHT22;26679;50.872;4.332;2023-03-01T16:51:17;8.50;80.50
39665;DHT22;26679;50.872;4.332;2023-03-01T16:53:42;8.30;81.10
39665;DHT22;26679;50.872;4.332;2023-03-01T16:56:10;8.10;81.40
39665;DHT22;26679;50.872;4.332;2023-03-01T16:58:36;8.20;82.20
39665;DHT22;26679;50.872;4.332;2023-03-01T17:01:20;8.10;81.80
39665;DHT22;26679;50.872;4.332;2023-03-01T17:03:51;8.80;82.60
39665;DHT22;26679;50.872;4.332;2023-03-01T17:06:19;7.70;83.00
39665;DHT22;26679;50.872;4.332;2023-03-01T17:08:50;7.60;83.60
39665;DHT22;26679;50.872;4.332;2023-03-01T17:11:16;7.50;83.90
39665;DHT22;26679;50.872;4.332;2023-03-01T17:13:43;7.50;84.00
39665;DHT22;26679;50.872;4.332;2023-03-01T17:16:10;7.40;84.40
39665;DHT22;26679;50.872;4.332;2023-03-01T17:18:46;6.50;84.10
39665;DHT22;26679;50.872;4.332;2023-03-01T17:21:12;7.30;84.60
39665;DHT22;26679;50.872;4.332;2023-03-01T17:23:40;7.30;84.70
39665;DHT22;26679;50.872;4.332;2023-03-01T17:26:08;7.30;84.80
39665;DHT22;26679;50.872;4.332;2023-03-01T17:28:40;7.50;84.70
39665;DHT22;26679;50.872;4.332;2023-03-01T17:31:07;7.30;84.10
39665;DHT22;26679;50.872;4.332;2023-03-01T17:33:32;7.60;84.20
39665;DHT22;26679;50.872;4.332;2023-03-01T17:35:58;7.70;83.90
39665;DHT22;26679;50.872;4.332;2023-03-01T17:38:26;9.00;84.50
39665;DHT22;26679;50.872;4.332;2023-03-01T17:40:52;7.70;83.80
39665;DHT22;26679;50.872;4.332;2023-03-01T17:43:17;7.80;83.80
39665;DHT22;26679;50.872;4.332;2023-03-01T17:45:44;7.70;83.30
39665;DHT22;26679;50.872;4.332;2023-03-01T17:48:14;7.80;83.40
39665;DHT22;26679;50.872;4.332;2023-03-01T17:50:41;8.60;84.00
39665;DHT22;26679;50.872;4.332;2023-03-01T17:53:07;8.20;83.70
39665;DHT22;26679;50.872;4.332;2023-03-01T17:55:35;7.40;84.00
39665;DHT22;26679;50.872;4.332;2023-03-01T17:58:01;7.10;85.10
39665;DHT22;26679;50.872;4.332;2023-03-01T18:00:27;8.10;86.00
39665;DHT22;26679;50.872;4.332;2023-03-01T18:02:53;7.20;85.30
39665;DHT22;26679;50.872;4.332;2023-03-01T18:05:19;7.10;85.50
39665;DHT22;26679;50.872;4.332;2023-03-01T18:07:44;7.00;85.90
39665;DHT22;26679;50.872;4.332;2023-03-01T18:10:10;7.10;86.00
39665;DHT22;26679;50.872;4.332;2023-03-01T18:12:36;6.60;85.60
39665;DHT22;26679;50.872;4.332;2023-03-01T18:15:02;7.10;85.70
39665;DHT22;26679;50.872;4.332;2023-03-01T18:17:28;7.20;86.00
39665;DHT22;26679;50.872;4.332;2023-03-01T18:19:53;7.10;85.60
39665;DHT22;26679;50.872;4.332;2023-03-01T18:22:20;7.10;85.60
39665;DHT22;26679;50.872;4.332;2023-03-01T18:24:46;7.00;85.50
39665;DHT22;26679;50.872;4.332;2023-03-01T18:27:11;6.80;86.00
39665;DHT22;26679;50.872;4.332;2023-03-01T18:29:37;7.40;86.60
39665;DHT22;26679;50.872;4.332;2023-03-01T18:32:03;6.70;86.20
39665;DHT22;26679;50.872;4.332;2023-03-01T18:34:28;6.60;86.60
39665;DHT22;26679;50.872;4.332;2023-03-01T18:36:54;6.60;86.70
39665;DHT22;26679;50.872;4.332;2023-03-01T18:39:22;6.60;86.80
39665;DHT22;26679;50.872;4.332;2023-03-01T18:41:48;6.50;87.30